Time;durP1;ratioP1;P1;durP2;ratioP2;P2;SDS_P1;SDS_P2;PMS_P1;PMS_P2;Temp;Humidity;BMP_temperature;BMP_pressure;BME280_temperature;BME280_humidity;BME280_pressure;Samples;Min_cycle;Max_cycle;Signal;HPM_P1;HPM_P2
2022/05/17 00:02:02;;;;;;;31.77;8.70;;;12.40;99.90;;;;;;5031250;28;20523;-84
2022/05/17 00:04:28;;;;;;;98.18;14.85;;;12.30;99.90;;;;;;5018073;28;20041;-83
2022/05/17 00:06:54;;;;;;;22.20;9.10;;;12.30;99.90;;;;;;5037035;28;20542;-82
2022/05/17 00:09:19;;;;;;;17.85;7.53;;;12.30;99.90;;;;;;5029415;28;20040;-83
2022/05/17 00:11:47;;;;;;;14.73;6.72;;;12.30;99.90;;;;;;5031560;28;20033;-82
2022/05/17 00:14:14;;;;;;;20.83;7.03;;;12.30;99.90;;;;;;5026323;28;20029;-82
2022/05/17 00:16:41;;;;;;;26.25;7.47;;;12.30;99.90;;;;;;5064321;28;20037;-82
2022/05/17 00:19:08;;;;;;;12.95;7.05;;;12.30;99.90;;;;;;5035230;28;20030;-82
2022/05/17 00:21:35;;;;;;;11.20;7.68;;;12.40;99.90;;;;;;5042681;28;20938;-84
2022/05/17 00:24:02;;;;;;;9.13;6.65;;;12.40;99.90;;;;;;5034827;28;20045;-82
2022/05/17 00:26:27;;;;;;;11.38;7.65;;;12.50;99.90;;;;;;5029104;28;20030;-83
2022/05/17 00:28:53;;;;;;;13.25;8.13;;;12.50;99.90;;;;;;5031858;28;20034;-82
2022/05/17 00:31:18;;;;;;;12.77;7.78;;;12.50;99.90;;;;;;5017877;28;20119;-83
2022/05/17 00:33:45;;;;;;;13.27;8.10;;;12.50;99.90;;;;;;5030089;28;20065;-83
2022/05/17 00:36:11;;;;;;;14.32;8.70;;;12.50;99.90;;;;;;5032031;28;20017;-83
2022/05/17 00:38:37;;;;;;;14.50;8.65;;;12.50;99.90;;;;;;5025063;28;20037;-82
2022/05/17 00:41:03;;;;;;;14.40;7.60;;;12.40;99.90;;;;;;5064439;28;20112;-82
2022/05/17 00:46:28;;;;;;;10.07;6.63;;;12.20;99.90;;;;;;5035579;28;20094;-82
2022/05/17 00:48:55;;;;;;;14.02;7.32;;;12.20;99.90;;;;;;5042017;28;20055;-83
2022/05/17 00:51:26;;;;;;;11.63;7.43;;;12.20;99.90;;;;;;5037135;28;20028;-82
2022/05/17 00:54:04;;;;;;;14.13;7.65;;;12.10;99.90;;;;;;5026779;28;20132;-82
2022/05/17 00:56:30;;;;;;;14.27;7.88;;;12.10;99.90;;;;;;5034105;28;20034;-83
2022/05/17 00:59:00;;;;;;;14.10;8.05;;;12.10;99.90;;;;;;5035272;28;20026;-83
2022/05/17 01:01:31;;;;;;;13.85;7.60;;;12.10;99.90;;;;;;5033571;28;20103;-83
2022/05/17 01:04:18;;;;;;;14.95;7.45;;;12.00;99.90;;;;;;5031178;28;20090;-82
2022/05/17 01:06:47;;;;;;;15.57;8.90;;;12.00;99.90;;;;;;5029002;28;20041;-84
2022/05/17 01:09:13;;;;;;;16.20;7.97;;;12.10;99.90;;;;;;5031034;28;20104;-83
2022/05/17 01:11:40;;;;;;;17.42;9.10;;;12.10;99.90;;;;;;5026003;28;20038;-82
2022/05/17 01:16:51;;;;;;;17.73;9.95;;;12.20;99.90;;;;;;5037555;28;20040;-82
2022/05/17 01:19:17;;;;;;;16.95;9.73;;;12.20;99.90;;;;;;5021069;28;20032;-83
2022/05/17 01:21:43;;;;;;;24.98;11.77;;;12.10;99.90;;;;;;5039051;28;20025;-84
2022/05/17 01:24:09;;;;;;;26.25;10.73;;;12.10;99.90;;;;;;5026920;28;20029;-83
2022/05/17 01:26:41;;;;;;;29.67;11.95;;;12.10;99.90;;;;;;5038233;28;20091;-83
2022/05/17 01:29:08;;;;;;;36.25;11.25;;;12.10;99.90;;;;;;5028474;28;20037;-82
2022/05/17 01:31:36;;;;;;;19.83;10.82;;;12.00;99.90;;;;;;5031497;28;20076;-82
2022/05/17 01:34:04;;;;;;;22.92;11.00;;;12.00;99.90;;;;;;5031277;28;20556;-83
2022/05/17 01:36:30;;;;;;;18.30;9.80;;;12.00;99.90;;;;;;5033903;28;20065;-83
2022/05/17 01:38:56;;;;;;;16.08;9.63;;;12.00;99.90;;;;;;5028629;28;20026;-82
2022/05/17 01:41:22;;;;;;;18.17;9.85;;;11.90;99.90;;;;;;5017583;28;20037;-83
2022/05/17 01:43:50;;;;;;;17.48;8.57;;;11.90;99.90;;;;;;5032575;28;20481;-83
2022/05/17 01:46:17;;;;;;;12.73;8.48;;;11.80;99.90;;;;;;5036632;28;20108;-83
2022/05/17 01:48:43;;;;;;;21.58;10.65;;;11.90;99.90;;;;;;5027977;28;20103;-83
2022/05/17 01:51:09;;;;;;;26.08;10.02;;;11.80;99.90;;;;;;5047731;28;20500;-81
2022/05/17 01:53:35;;;;;;;25.63;9.35;;;11.80;99.90;;;;;;5041255;28;20095;-83
2022/05/17 01:56:02;;;;;;;104.78;16.08;;;11.70;99.90;;;;;;5040505;28;20021;-82
2022/05/17 01:58:28;;;;;;;57.70;11.10;;;11.70;99.90;;;;;;5038455;28;20117;-83
2022/05/17 02:00:53;;;;;;;24.17;8.82;;;11.70;99.90;;;;;;5034475;28;20471;-84
2022/05/17 02:03:19;;;;;;;26.73;8.13;;;11.70;99.90;;;;;;5029509;28;20045;-83
2022/05/17 02:05:45;;;;;;;47.33;10.07;;;11.70;99.90;;;;;;5034184;28;20049;-83
2022/05/17 02:08:10;;;;;;;68.18;11.10;;;11.70;99.90;;;;;;5028711;28;20085;-82
2022/05/17 02:10:36;;;;;;;23.17;7.53;;;11.70;99.90;;;;;;5035928;28;20213;-83
2022/05/17 02:13:03;;;;;;;21.33;7.60;;;11.70;99.90;;;;;;5037682;28;20037;-82
2022/05/17 02:15:28;;;;;;;67.47;10.77;;;11.70;99.90;;;;;;5026851;28;20544;-82
2022/05/17 02:17:54;;;;;;;44.67;8.40;;;11.60;99.90;;;;;;5041505;28;20168;-83
2022/05/17 02:20:21;;;;;;;54.47;9.02;;;11.60;99.90;;;;;;5038982;28;20033;-83
2022/05/17 02:22:46;;;;;;;65.00;10.15;;;11.60;99.90;;;;;;5022450;28;20040;-82
2022/05/17 02:25:12;;;;;;;46.03;8.07;;;11.60;99.90;;;;;;5043738;28;20029;-84
2022/05/17 02:27:39;;;;;;;36.50;8.18;;;11.50;99.90;;;;;;5039182;28;20033;-84
2022/05/17 02:30:07;;;;;;;49.15;8.32;;;11.50;99.90;;;;;;5038358;28;20381;-83
2022/05/17 02:32:33;;;;;;;20.75;5.57;;;11.40;99.90;;;;;;5036275;28;20041;-83
2022/05/17 02:34:59;;;;;;;34.90;5.78;;;11.40;99.90;;;;;;5036322;28;20040;-83
2022/05/17 02:37:24;;;;;;;34.80;5.68;;;11.40;99.90;;;;;;5037037;28;20484;-82
2022/05/17 02:39:50;;;;;;;30.10;5.88;;;11.50;99.90;;;;;;5028816;28;20057;-83
2022/05/17 02:42:16;;;;;;;26.88;5.68;;;11.40;99.90;;;;;;5031641;28;20030;-82
2022/05/17 02:44:41;;;;;;;10.95;4.90;;;11.40;99.90;;;;;;5032286;28;20033;-85
2022/05/17 02:47:08;;;;;;;18.73;4.75;;;11.30;99.90;;;;;;5048283;28;20044;-84
2022/05/17 02:49:34;;;;;;;36.03;6.20;;;11.30;99.90;;;;;;5040688;28;20025;-83
2022/05/17 02:52:01;;;;;;;26.90;4.88;;;11.20;99.90;;;;;;5038402;28;20036;-83
2022/05/17 02:54:27;;;;;;;13.10;4.95;;;11.20;99.90;;;;;;5037420;28;20120;-83
2022/05/17 02:56:53;;;;;;;20.90;4.97;;;11.10;99.90;;;;;;5040399;28;20167;-83
2022/05/17 02:59:19;;;;;;;10.80;4.15;;;11.10;99.90;;;;;;5019143;28;20032;-82
2022/05/17 03:01:46;;;;;;;12.85;4.35;;;11.10;99.90;;;;;;5032368;28;20040;-83
2022/05/17 03:04:13;;;;;;;19.83;4.78;;;11.00;99.90;;;;;;5035150;28;20377;-83
2022/05/17 03:06:43;;;;;;;15.75;4.85;;;11.00;99.90;;;;;;5039172;28;20098;-86
2022/05/17 03:09:09;;;;;;;19.70;4.53;;;11.00;99.90;;;;;;5029309;28;20114;-83
2022/05/17 03:11:37;;;;;;;25.05;5.95;;;11.00;99.90;;;;;;5029095;28;20268;-82
2022/05/17 03:14:03;;;;;;;10.07;4.20;;;10.90;99.90;;;;;;5033576;28;20037;-82
2022/05/17 03:16:32;;;;;;;12.27;4.57;;;11.00;99.90;;;;;;5037977;28;20040;-83
2022/05/17 03:18:59;;;;;;;6.45;4.10;;;10.90;99.90;;;;;;5026821;28;20033;-83
2022/05/17 03:21:25;;;;;;;7.68;3.80;;;10.90;99.90;;;;;;5043549;28;20028;-83
2022/05/17 03:23:51;;;;;;;37.50;5.38;;;10.90;99.90;;;;;;5028331;28;20079;-83
2022/05/17 03:26:17;;;;;;;30.80;4.72;;;10.90;99.90;;;;;;5041013;28;20029;-84
2022/05/17 03:28:42;;;;;;;31.05;5.30;;;10.90;99.90;;;;;;5030515;28;20104;-83
2022/05/17 03:31:09;;;;;;;48.60;5.03;;;10.90;99.90;;;;;;5034623;28;20744;-83
2022/05/17 03:33:35;;;;;;;10.00;4.32;;;10.90;99.90;;;;;;5034226;28;20057;-83
2022/05/17 03:36:01;;;;;;;6.75;3.67;;;10.80;99.90;;;;;;5036916;28;20064;-82
2022/05/17 03:38:26;;;;;;;9.23;4.05;;;10.80;99.90;;;;;;5015828;28;20029;-83
2022/05/17 03:40:54;;;;;;;14.68;4.32;;;10.80;99.90;;;;;;5034842;28;20468;-83
2022/05/17 03:43:20;;;;;;;10.25;4.30;;;10.70;99.90;;;;;;5031969;28;20048;-83
2022/05/17 03:45:47;;;;;;;7.55;4.28;;;10.60;99.90;;;;;;5067689;28;20036;-82
2022/05/17 03:48:13;;;;;;;25.95;4.60;;;10.70;99.90;;;;;;5042149;28;20045;-83
2022/05/17 03:50:39;;;;;;;30.35;5.30;;;10.70;99.90;;;;;;5039451;28;20042;-84
2022/05/17 03:53:05;;;;;;;27.75;4.68;;;10.70;99.90;;;;;;5039385;28;20037;-84
2022/05/17 03:55:31;;;;;;;21.63;5.35;;;10.80;99.90;;;;;;5040210;28;20095;-83
2022/05/17 03:57:58;;;;;;;18.80;4.60;;;10.90;99.90;;;;;;5034370;28;20022;-83
2022/05/17 04:00:24;;;;;;;18.38;5.10;;;10.90;99.90;;;;;;5038635;28;20030;-83
2022/05/17 04:02:50;;;;;;;18.95;4.78;;;11.00;99.90;;;;;;5031223;28;20044;-82
2022/05/17 04:05:16;;;;;;;55.53;8.02;;;11.00;99.90;;;;;;5033391;28;20056;-83
2022/05/17 04:07:42;;;;;;;36.38;6.55;;;11.00;99.90;;;;;;5025947;28;20137;-83
2022/05/17 04:10:10;;;;;;;26.77;6.03;;;11.00;99.90;;;;;;5032634;28;20033;-82
2022/05/17 04:12:36;;;;;;;30.45;5.00;;;11.00;99.90;;;;;;5032982;28;20142;-84
2022/05/17 04:15:06;;;;;;;43.53;6.30;;;10.90;99.90;;;;;;5034540;28;20036;-84
2022/05/17 04:17:32;;;;;;;21.77;5.47;;;10.90;99.90;;;;;;5040077;28;20111;-82
2022/05/17 04:20:00;;;;;;;23.85;5.75;;;10.80;99.90;;;;;;5042860;28;20138;-82
2022/05/17 04:22:26;;;;;;;35.33;6.15;;;10.80;99.90;;;;;;5031806;28;20528;-85
2022/05/17 04:24:56;;;;;;;22.50;5.13;;;10.90;99.90;;;;;;5037518;28;20072;-82
2022/05/17 04:27:22;;;;;;;17.48;5.10;;;11.00;99.90;;;;;;5031881;28;20040;-82
2022/05/17 04:29:49;;;;;;;45.45;6.78;;;11.00;99.90;;;;;;5032910;28;20045;-82
2022/05/17 04:32:15;;;;;;;19.80;5.13;;;11.00;99.90;;;;;;5028793;28;20443;-84
2022/05/17 04:34:41;;;;;;;22.52;5.57;;;11.00;99.90;;;;;;5040753;28;20029;-82
2022/05/17 04:37:07;;;;;;;9.73;4.82;;;11.00;99.90;;;;;;5028754;28;20393;-84
2022/05/17 04:39:33;;;;;;;9.00;4.35;;;11.00;99.90;;;;;;5026095;28;20018;-84
2022/05/17 04:41:59;;;;;;;7.68;4.40;;;11.00;99.90;;;;;;5028154;28;20032;-83
2022/05/17 04:44:26;;;;;;;19.45;4.88;;;11.00;99.90;;;;;;5023363;28;20037;-83
2022/05/17 04:46:52;;;;;;;14.73;5.03;;;11.10;99.90;;;;;;5038823;28;20033;-84
2022/05/17 04:49:18;;;;;;;26.88;5.70;;;11.20;99.90;;;;;;5042198;28;20029;-83
2022/05/17 04:51:44;;;;;;;37.40;5.88;;;11.20;99.90;;;;;;5039943;28;20127;-83
2022/05/17 04:54:10;;;;;;;52.50;6.63;;;11.30;99.90;;;;;;5036199;28;20084;-86
2022/05/17 04:56:36;;;;;;;23.15;5.25;;;11.30;99.90;;;;;;5012678;28;20481;-84
2022/05/17 04:59:03;;;;;;;35.40;5.57;;;11.40;99.90;;;;;;5031534;28;20091;-84
2022/05/17 05:01:31;;;;;;;21.85;5.07;;;11.50;99.90;;;;;;5036118;28;20036;-83
2022/05/17 05:03:57;;;;;;;98.82;9.88;;;11.70;99.90;;;;;;5024367;28;20072;-83
2022/05/17 05:06:23;;;;;;;73.55;8.00;;;11.70;99.90;;;;;;5030202;28;20033;-84
2022/05/17 05:08:48;;;;;;;22.48;5.43;;;11.70;99.90;;;;;;5032038;28;20404;-84
2022/05/17 05:11:14;;;;;;;47.03;6.00;;;11.90;99.90;;;;;;5031829;28;20033;-84
2022/05/17 05:13:40;;;;;;;24.08;5.20;;;11.90;99.90;;;;;;5033577;28;20795;-84
2022/05/17 05:16:10;;;;;;;22.70;5.18;;;12.00;99.90;;;;;;5034943;28;20045;-82
2022/05/17 05:18:36;;;;;;;;;;;12.00;99.90;;;;;;5042431;28;20385;-83
2022/05/17 05:21:12;;;;;;;18.23;5.10;;;12.00;99.90;;;;;;5022572;28;19970;-82
2022/05/17 05:23:39;;;;;;;29.92;4.85;;;12.00;99.90;;;;;;5020689;28;20021;-78
2022/05/17 05:26:05;;;;;;;33.78;5.60;;;12.10;99.90;;;;;;5032464;28;20044;-79
2022/05/17 05:28:32;;;;;;;61.58;7.05;;;12.20;99.90;;;;;;5025108;28;20034;-79
2022/05/17 05:30:58;;;;;;;16.25;5.65;;;12.30;99.90;;;;;;5027209;28;20828;-79
2022/05/17 05:33:24;;;;;;;4.80;4.18;;;12.40;99.90;;;;;;5035013;28;20025;-84
2022/05/17 05:35:51;;;;;;;25.65;5.53;;;12.50;99.90;;;;;;5030445;28;20037;-80
2022/05/17 05:38:17;;;;;;;21.55;5.03;;;12.60;99.90;;;;;;5028550;28;20242;-78
2022/05/17 05:40:43;;;;;;;7.82;4.85;;;12.70;99.90;;;;;;5032990;28;20500;-78
2022/05/17 05:43:09;;;;;;;6.47;4.78;;;12.70;99.90;;;;;;5029989;28;20065;-80
2022/05/17 05:45:34;;;;;;;9.68;5.65;;;12.80;99.90;;;;;;5034524;28;20428;-79
2022/05/17 05:48:01;;;;;;;6.68;4.40;;;13.00;99.90;;;;;;5036616;28;20104;-79
2022/05/17 05:50:27;;;;;;;4.95;4.20;;;13.00;99.90;;;;;;5043393;28;20042;-79
2022/05/17 05:53:19;;;;;;;5.90;5.03;;;13.00;99.90;;;;;;5032307;28;20064;-79
2022/05/17 05:55:45;;;;;;;6.35;4.97;;;13.00;99.90;;;;;;5032722;28;20129;-77
2022/05/17 05:58:17;;;;;;;7.07;4.60;;;13.10;99.90;;;;;;5029486;28;20018;-77
2022/05/17 06:00:43;;;;;;;7.65;5.32;;;13.30;99.90;;;;;;5034955;28;20041;-80
2022/05/17 06:03:09;;;;;;;6.90;5.43;;;13.30;99.90;;;;;;5021522;28;20128;-83
2022/05/17 06:05:36;;;;;;;8.07;6.43;;;13.40;99.90;;;;;;5024652;28;20049;-78
2022/05/17 06:08:03;;;;;;;7.72;5.70;;;13.60;99.90;;;;;;5037088;28;20659;-84
2022/05/17 06:10:29;;;;;;;6.43;5.22;;;13.80;99.90;;;;;;5025572;28;20034;-81
2022/05/17 06:12:55;;;;;;;7.00;6.13;;;13.70;99.90;;;;;;5035282;28;20732;-83
2022/05/17 06:15:20;;;;;;;8.65;6.32;;;13.70;99.90;;;;;;5022875;28;20025;-82
2022/05/17 06:17:46;;;;;;;7.45;6.63;;;13.80;99.90;;;;;;5031618;28;20692;-80
2022/05/17 06:20:12;;;;;;;8.00;6.35;;;14.00;99.90;;;;;;5042632;28;20029;-82
2022/05/17 06:22:38;;;;;;;9.02;6.25;;;14.20;99.90;;;;;;5038131;28;20504;-82
2022/05/17 06:25:05;;;;;;;7.50;5.68;;;14.20;99.90;;;;;;5039466;28;20025;-82
2022/05/17 06:27:31;;;;;;;6.20;5.25;;;14.30;99.90;;;;;;5039009;28;20025;-79
2022/05/17 06:29:56;;;;;;;9.40;6.78;;;14.50;99.90;;;;;;5031227;28;20037;-84
2022/05/17 06:32:22;;;;;;;8.45;5.50;;;14.60;99.90;;;;;;5033907;28;20052;-82
2022/05/17 06:34:48;;;;;;;7.53;5.90;;;14.80;99.90;;;;;;5032275;28;20061;-80
2022/05/17 06:37:14;;;;;;;9.23;5.90;;;15.00;99.90;;;;;;5025108;28;20748;-80
2022/05/17 06:39:40;;;;;;;9.82;5.93;;;15.10;99.90;;;;;;5029016;28;20536;-80
2022/05/17 06:42:07;;;;;;;6.25;5.18;;;15.40;99.90;;;;;;5030467;28;20121;-84
2022/05/17 06:44:33;;;;;;;7.47;6.28;;;15.30;99.90;;;;;;5031417;28;20029;-80
2022/05/17 06:46:59;;;;;;;7.82;6.30;;;15.50;99.90;;;;;;5039971;28;20044;-82
2022/05/17 06:49:26;;;;;;;7.28;5.68;;;15.60;99.90;;;;;;5042252;28;20111;-80
2022/05/17 06:51:52;;;;;;;7.18;5.78;;;15.70;99.90;;;;;;5038780;28;20033;-80
2022/05/17 06:54:18;;;;;;;9.88;6.40;;;15.70;99.90;;;;;;5035626;28;20045;-82
2022/05/17 06:56:44;;;;;;;9.82;7.05;;;15.80;99.90;;;;;;5040674;28;20025;-82
2022/05/17 06:59:09;;;;;;;9.20;6.70;;;16.00;99.90;;;;;;5031405;28;20026;-80
2022/05/17 07:01:35;;;;;;;11.40;8.40;;;16.00;99.90;;;;;;5036700;28;20553;-79
2022/05/17 07:04:01;;;;;;;8.07;7.05;;;15.90;99.90;;;;;;5028659;28;20033;-78
2022/05/17 07:06:27;;;;;;;10.90;7.53;;;16.10;99.90;;;;;;5029404;28;20025;-78
2022/05/17 07:08:53;;;;;;;11.88;8.20;;;15.90;99.90;;;;;;5024845;28;20029;-78
2022/05/17 07:14:04;;;;;;;16.95;8.48;;;16.00;99.90;;;;;;5031381;28;20055;-79
2022/05/17 07:16:29;;;;;;;9.55;7.55;;;16.10;99.90;;;;;;5038834;28;20029;-79
2022/05/17 07:18:55;;;;;;;10.60;6.93;;;16.00;99.90;;;;;;5031049;28;20029;-81
2022/05/17 07:21:21;;;;;;;10.40;7.80;;;16.10;99.90;;;;;;5039460;28;20025;-80
2022/05/17 07:23:47;;;;;;;11.02;7.85;;;16.20;99.90;;;;;;5039920;28;20017;-79
2022/05/17 07:26:13;;;;;;;11.70;7.95;;;16.10;99.90;;;;;;5037796;28;20396;-80
2022/05/17 07:28:44;;;;;;;10.43;8.35;;;16.30;99.90;;;;;;5013279;28;20435;-78
2022/05/17 07:31:10;;;;;;;11.65;7.22;;;16.10;99.90;;;;;;5026653;28;20036;-79
2022/05/17 07:33:36;;;;;;;8.65;7.72;;;16.20;99.90;;;;;;5018001;28;20030;-79
2022/05/17 07:36:03;;;;;;;11.35;8.02;;;16.30;99.90;;;;;;5034598;28;20029;-78
2022/05/17 07:38:29;;;;;;;9.65;7.88;;;16.40;99.90;;;;;;5026860;28;20140;-80
2022/05/17 07:40:55;;;;;;;11.05;7.53;;;16.40;99.90;;;;;;5013231;28;20120;-81
2022/05/17 07:43:22;;;;;;;9.50;6.55;;;16.40;99.90;;;;;;5036644;28;20025;-81
2022/05/17 07:45:51;;;;;;;9.65;7.65;;;16.40;99.90;;;;;;5066939;28;20024;-80
2022/05/17 07:48:23;;;;;;;10.25;7.70;;;16.60;99.90;;;;;;5043002;28;20036;-80
2022/05/17 07:50:50;;;;;;;10.70;7.72;;;16.80;99.90;;;;;;5025349;28;20034;-81
2022/05/17 07:53:17;;;;;;;11.52;7.78;;;16.60;99.90;;;;;;5025661;28;20079;-80
2022/05/17 07:55:45;;;;;;;12.57;7.65;;;17.00;99.90;;;;;;5020449;28;20042;-81
2022/05/17 07:58:11;;;;;;;10.68;7.32;;;17.00;99.90;;;;;;5025330;28;20030;-82
2022/05/17 08:00:38;;;;;;;22.42;8.02;;;16.90;99.90;;;;;;5026684;28;20029;-82
2022/05/17 08:03:05;;;;;;;10.50;7.25;;;16.70;99.90;;;;;;5033234;28;20404;-81
2022/05/17 08:05:32;;;;;;;9.23;7.43;;;17.10;99.90;;;;;;5028595;28;20025;-82
2022/05/17 08:07:58;;;;;;;9.48;7.03;;;17.10;99.90;;;;;;5018005;28;20029;-81
2022/05/17 08:10:24;;;;;;;10.02;6.68;;;17.20;99.90;;;;;;5024045;28;20037;-81
2022/05/17 08:12:51;;;;;;;9.80;7.20;;;17.10;99.90;;;;;;5026844;28;20547;-81
2022/05/17 08:15:19;;;;;;;8.52;6.47;;;17.30;99.90;;;;;;5036083;28;20043;-82
2022/05/17 08:17:44;;;;;;;12.45;6.07;;;17.50;99.90;;;;;;5026114;28;20600;-81
2022/05/17 08:20:10;;;;;;;7.50;5.72;;;17.40;99.90;;;;;;5013741;28;20125;-79
2022/05/17 08:22:41;;;;;;;8.05;6.20;;;17.20;99.90;;;;;;5027908;28;20029;-81
2022/05/17 08:27:54;;;;;;;7.78;5.20;;;17.30;99.90;;;;;;5035515;28;20512;-81
2022/05/17 08:30:22;;;;;;;8.52;5.63;;;17.60;99.90;;;;;;5025667;28;20033;-81
2022/05/17 08:33:16;;;;;;;10.60;5.95;;;17.60;99.90;;;;;;5026326;28;20039;-83
2022/05/17 08:36:01;;;;;;;8.90;5.75;;;18.20;99.90;;;;;;5028280;28;20033;-82
2022/05/17 08:38:32;;;;;;;11.55;5.43;;;18.20;99.90;;;;;;5034106;28;20029;-80
2022/05/17 08:41:14;;;;;;;9.82;6.80;;;17.90;99.90;;;;;;5026007;28;20370;-80
2022/05/17 08:43:50;;;;;;;9.05;6.60;;;18.20;99.90;;;;;;5025218;28;20033;-79
2022/05/17 08:46:23;;;;;;;7.85;5.57;;;18.80;99.90;;;;;;5026343;28;20030;-79
2022/05/17 08:49:08;;;;;;;8.75;5.80;;;18.20;99.90;;;;;;5026759;28;20014;-79
2022/05/17 08:51:41;;;;;;;7.75;5.35;;;18.30;99.90;;;;;;5040662;28;20215;-79
2022/05/17 08:54:11;;;;;;;8.25;4.97;;;18.10;99.30;;;;;;5024369;28;20680;-79
2022/05/17 08:56:41;;;;;;;;;;;18.20;99.90;;;;;;5030026;28;20500;-78
2022/05/17 08:59:12;;;;;;;7.43;5.13;;;18.60;94.10;;;;;;5030509;28;20418;-78
2022/05/17 09:01:45;;;;;;;8.25;4.72;;;19.00;90.40;;;;;;5027322;28;20140;-79
2022/05/17 09:04:30;;;;;;;7.20;5.15;;;19.10;93.10;;;;;;5029469;28;20132;-79
2022/05/17 09:07:24;;;;;;;7.57;5.38;;;19.70;92.30;;;;;;5028118;28;20033;-81
2022/05/17 09:09:49;;;;;;;7.35;4.85;;;19.80;91.20;;;;;;5025882;28;20041;-84
2022/05/17 09:12:42;;;;;;;7.07;5.15;;;20.50;94.80;;;;;;5025828;28;20437;-80
2022/05/17 09:15:10;;;;;;;5.10;4.25;;;20.80;94.40;;;;;;5037621;28;20163;-83
2022/05/17 09:17:36;;;;;;;5.68;4.43;;;20.80;91.70;;;;;;5033151;28;20029;-79
2022/05/17 09:20:03;;;;;;;7.03;4.82;;;21.10;87.90;;;;;;5033203;28;20025;-83
2022/05/17 09:22:29;;;;;;;6.57;5.00;;;20.90;95.80;;;;;;5032526;28;20028;-79
2022/05/17 09:25:01;;;;;;;7.63;5.13;;;21.10;94.70;;;;;;5036653;28;20112;-78
2022/05/17 09:27:38;;;;;;;7.53;4.95;;;21.50;76.60;;;;;;5029042;28;20291;-79
2022/05/17 09:30:12;;;;;;;12.38;5.18;;;22.10;83.00;;;;;;5029515;28;20496;-77
2022/05/17 09:32:44;;;;;;;7.03;5.20;;;22.10;72.20;;;;;;5023365;28;20075;-77
2022/05/17 09:35:20;;;;;;;8.98;5.05;;;22.20;71.80;;;;;;5025467;28;20484;-80
2022/05/17 09:37:56;;;;;;;7.72;4.70;;;22.50;73.50;;;;;;5056962;28;20060;-78
2022/05/17 09:40:29;;;;;;;7.63;4.53;;;22.70;72.80;;;;;;5028291;28;20064;-76
2022/05/17 09:42:59;;;;;;;7.72;4.60;;;22.70;62.50;;;;;;5024354;28;20025;-80
2022/05/17 09:45:50;;;;;;;5.97;4.93;;;22.70;63.40;;;;;;5025322;28;20033;-79
2022/05/17 09:54:45;;;;;;;7.95;5.10;;;23.20;62.70;;;;;;5028443;28;20059;-81
2022/05/17 09:57:26;;;;;;;5.97;4.63;;;23.40;66.10;;;;;;5044254;28;20032;-84
2022/05/17 10:00:12;;;;;;;8.52;5.30;;;23.30;62.40;;;;;;5023362;28;20251;-81
2022/05/17 10:03:00;;;;;;;6.45;4.45;;;22.90;65.20;;;;;;5005873;28;20034;-82
2022/05/17 10:05:28;;;;;;;7.93;5.47;;;22.60;60.70;;;;;;5019532;28;20397;-81
2022/05/17 10:08:02;;;;;;;7.47;5.32;;;22.00;64.70;;;;;;5010282;28;20029;-83
2022/05/17 10:10:29;;;;;;;5.75;4.50;;;22.00;63.60;;;;;;5011767;28;20056;-82
2022/05/17 10:13:01;;;;;;;9.73;5.78;;;22.10;63.10;;;;;;5009871;28;20085;-81
2022/05/17 10:15:29;;;;;;;6.90;5.18;;;22.10;67.00;;;;;;5009800;28;20505;-83
2022/05/17 10:18:01;;;;;;;7.68;4.88;;;22.70;67.60;;;;;;5009600;28;20481;-81
2022/05/17 10:20:29;;;;;;;7.88;5.28;;;23.30;60.50;;;;;;5010744;28;20021;-83
2022/05/17 10:23:16;;;;;;;18.27;5.00;;;22.90;63.90;;;;;;5009673;28;20555;-83
2022/05/17 10:25:47;;;;;;;8.48;4.40;;;22.20;60.00;;;;;;5009007;28;20034;-82
2022/05/17 10:28:19;;;;;;;6.53;4.30;;;21.90;60.90;;;;;;5008962;28;20119;-83
2022/05/17 10:30:53;;;;;;;9.27;4.32;;;22.40;58.20;;;;;;5006956;28;20580;-84
2022/05/17 10:33:35;;;;;;;5.35;4.40;;;22.80;57.60;;;;;;5010566;28;20062;-82
2022/05/17 10:36:20;;;;;;;6.47;4.72;;;22.30;57.80;;;;;;5011722;28;20026;-83
2022/05/17 10:39:32;;;;;;;6.03;3.90;;;22.00;58.20;;;;;;5012657;28;20044;-83
2022/05/17 10:41:58;;;;;;;6.00;3.78;;;22.90;58.20;;;;;;5006264;28;20056;-83
2022/05/17 10:44:31;;;;;;;6.63;4.25;;;22.90;60.50;;;;;;5016277;28;20037;-80
2022/05/17 10:47:06;;;;;;;7.35;4.05;;;23.10;64.60;;;;;;5017762;28;20029;-83
2022/05/17 10:49:54;;;;;;;7.05;4.32;;;24.00;59.80;;;;;;5017714;28;20026;-86
2022/05/17 10:52:50;;;;;;;7.28;4.20;;;24.80;57.40;;;;;;5017011;28;20040;-83
2022/05/17 10:55:27;;;;;;;4.25;3.75;;;25.10;54.00;;;;;;5015745;28;20050;-82
2022/05/17 10:57:53;;;;;;;8.65;4.05;;;25.20;47.80;;;;;;5010163;28;20760;-83
2022/05/17 11:00:23;;;;;;;4.63;3.90;;;25.30;52.00;;;;;;5011747;28;20112;-86
2022/05/17 11:03:12;;;;;;;5.65;4.13;;;25.10;45.70;;;;;;5011138;28;20112;-87
2022/05/17 11:06:12;;;;;;;4.97;3.67;;;25.70;48.70;;;;;;5006822;28;20087;-91
2022/05/17 11:08:46;;;;;;;6.97;4.32;;;25.50;50.50;;;;;;5011504;28;20053;-84
2022/05/17 11:11:18;;;;;;;5.72;4.07;;;26.10;45.40;;;;;;5011132;28;20029;-83
2022/05/17 11:14:02;;;;;;;4.60;4.20;;;26.60;44.20;;;;;;5009619;28;20042;-84
2022/05/17 11:16:50;;;;;;;5.97;4.47;;;26.60;42.50;;;;;;5010746;28;20432;-83
2022/05/17 11:19:20;;;;;;;5.10;4.32;;;26.80;47.20;;;;;;5015695;28;20037;-82
2022/05/17 11:22:06;;;;;;;6.00;4.13;;;26.80;46.00;;;;;;5016176;28;20017;-83
2022/05/17 11:24:58;;;;;;;7.72;4.63;;;26.70;40.50;;;;;;5011395;28;20143;-82
2022/05/17 11:28:02;;;;;;;5.18;4.05;;;27.80;41.00;;;;;;5012491;28;20034;-83
2022/05/17 11:30:43;;;;;;;7.00;4.13;;;27.50;38.90;;;;;;5010199;28;20501;-81
2022/05/17 11:33:24;;;;;;;7.57;3.97;;;27.00;40.60;;;;;;5001907;28;20394;-83
2022/05/17 11:36:06;;;;;;;6.45;3.95;;;26.70;43.60;;;;;;5011844;28;20026;-81
2022/05/17 11:38:35;;;;;;;7.78;4.22;;;28.10;40.70;;;;;;5009781;28;20540;-80
2022/05/17 11:41:04;;;;;;;5.60;4.63;;;27.80;41.70;;;;;;5010159;28;20036;-80
2022/05/17 11:44:08;;;;;;;5.83;4.33;;;27.70;39.60;;;;;;5009080;28;20026;-81
2022/05/17 11:46:49;;;;;;;7.15;4.20;;;27.00;37.50;;;;;;5007845;28;20170;-79
2022/05/17 11:49:23;;;;;;;5.30;3.90;;;27.40;41.30;;;;;;5011395;28;20061;-81
2022/05/17 11:51:58;;;;;;;7.88;4.07;;;27.70;38.70;;;;;;5004717;28;20542;-80
2022/05/17 11:54:45;;;;;;;5.32;4.10;;;27.60;39.30;;;;;;5010582;28;20132;-81
2022/05/17 11:57:30;;;;;;;4.30;3.55;;;27.40;43.20;;;;;;5013806;28;20072;-79
2022/05/17 12:00:08;;;;;;;5.97;3.72;;;28.40;39.10;;;;;;5017248;28;20503;-80
2022/05/17 12:02:59;;;;;;;5.63;4.15;;;28.40;40.20;;;;;;5009233;28;20038;-79
2022/05/17 12:05:37;;;;;;;6.68;4.68;;;27.70;38.40;;;;;;5006838;28;20045;-81
2022/05/17 12:08:32;;;;;;;7.80;4.50;;;27.90;38.10;;;;;;5004617;28;20089;-82
2022/05/17 12:11:11;;;;;;;4.13;3.60;;;28.40;38.00;;;;;;5003626;28;20116;-77
2022/05/17 12:13:58;;;;;;;6.75;3.47;;;28.60;34.50;;;;;;5029438;28;20069;-78
2022/05/17 12:16:27;;;;;;;6.30;4.38;;;28.70;36.00;;;;;;5007051;28;20333;-78
2022/05/17 12:19:01;;;;;;;5.90;4.32;;;28.80;36.20;;;;;;5011587;28;20066;-78
2022/05/17 12:21:51;;;;;;;8.15;4.30;;;28.70;38.20;;;;;;5007029;28;20046;-78
2022/05/17 12:24:26;;;;;;;5.25;4.00;;;29.50;37.20;;;;;;5009755;28;20029;-79
2022/05/17 12:27:20;;;;;;;5.60;3.95;;;29.50;38.90;;;;;;5006843;28;20725;-84
2022/05/17 12:32:50;;;;;;;5.47;3.40;;;29.70;34.50;;;;;;5005016;28;20045;-80
2022/05/17 12:35:24;;;;;;;6.38;3.92;;;28.80;33.30;;;;;;5009268;28;20037;-80
2022/05/17 12:37:50;;;;;;;5.80;3.97;;;28.70;35.10;;;;;;5009566;28;20109;-79
2022/05/17 12:43:10;;;;;;;5.38;3.78;;;30.10;32.80;;;;;;5005327;28;20087;-82
2022/05/17 12:45:52;;;;;;;6.35;3.75;;;29.40;35.00;;;;;;5005737;28;20080;-81
2022/05/17 12:48:24;;;;;;;6.05;4.57;;;29.80;35.90;;;;;;5013530;28;20563;-80
2022/05/17 12:50:56;;;;;;;6.20;3.92;;;30.00;34.50;;;;;;5010651;28;20029;-80
2022/05/17 12:53:28;;;;;;;5.97;4.47;;;30.20;36.20;;;;;;5005351;28;20095;-81
2022/05/17 12:56:23;;;;;;;5.75;3.97;;;30.60;34.80;;;;;;5007887;28;20034;-79
2022/05/17 12:58:57;;;;;;;4.60;3.80;;;30.90;32.70;;;;;;4994208;28;20037;-80
2022/05/17 13:01:38;;;;;;;7.68;3.90;;;30.10;33.20;;;;;;5003258;28;20037;-79
2022/05/17 13:04:13;;;;;;;5.38;3.60;;;30.20;32.20;;;;;;5002849;28;20030;-80
2022/05/17 13:06:46;;;;;;;8.00;4.28;;;29.60;34.10;;;;;;5008269;28;20030;-82
2022/05/17 13:09:22;;;;;;;4.32;3.78;;;30.20;32.10;;;;;;5003726;28;20121;-82
2022/05/17 13:11:49;;;;;;;6.47;3.97;;;30.20;34.30;;;;;;5005795;28;20026;-81
2022/05/17 13:14:32;;;;;;;6.85;4.55;;;30.10;31.90;;;;;;5013293;28;20045;-79
2022/05/17 13:17:10;;;;;;;6.32;3.88;;;29.90;34.20;;;;;;5010917;28;20120;-81
2022/05/17 13:19:38;;;;;;;5.95;3.85;;;31.20;31.20;;;;;;5008459;28;20513;-81
2022/05/17 13:22:05;;;;;;;5.60;3.63;;;31.30;31.70;;;;;;5006338;28;20528;-82
2022/05/17 13:24:43;;;;;;;6.57;4.15;;;31.40;30.00;;;;;;5005824;28;20149;-81